sensor_id;sensor_type;location;lat;lon;timestamp;temperature;humidity
21425;DHT22;10873;51.132;16.848;2022-12-29T00:01:31;24.50;46.50
21425;DHT22;10873;51.132;16.848;2022-12-29T00:03:57;24.50;46.50
21425;DHT22;10873;51.132;16.848;2022-12-29T00:06:23;24.50;46.50
21425;DHT22;10873;51.132;16.848;2022-12-29T00:08:49;24.50;46.50
21425;DHT22;10873;51.132;16.848;2022-12-29T00:11:17;24.50;46.50
21425;DHT22;10873;51.132;16.848;2022-12-29T00:13:43;24.50;46.50
21425;DHT22;10873;51.132;16.848;2022-12-29T00:16:32;24.50;46.50
21425;DHT22;10873;51.132;16.848;2022-12-29T00:18:59;24.50;46.50
21425;DHT22;10873;51.132;16.848;2022-12-29T00:21:26;24.50;46.50
21425;DHT22;10873;51.132;16.848;2022-12-29T00:24:13;24.50;46.50
21425;DHT22;10873;51.132;16.848;2022-12-29T00:26:56;24.50;46.50
21425;DHT22;10873;51.132;16.848;2022-12-29T00:29:42;24.50;46.50
21425;DHT22;10873;51.132;16.848;2022-12-29T00:32:28;24.50;46.40
21425;DHT22;10873;51.132;16.848;2022-12-29T00:35:15;24.50;46.40
21425;DHT22;10873;51.132;16.848;2022-12-29T00:37:43;24.50;46.40
21425;DHT22;10873;51.132;16.848;2022-12-29T00:40:28;24.50;46.40
21425;DHT22;10873;51.132;16.848;2022-12-29T00:43:12;24.50;46.30
21425;DHT22;10873;51.132;16.848;2022-12-29T00:45:57;24.50;46.30
21425;DHT22;10873;51.132;16.848;2022-12-29T00:48:24;24.50;46.20
21425;DHT22;10873;51.132;16.848;2022-12-29T00:51:09;24.50;46.20
21425;DHT22;10873;51.132;16.848;2022-12-29T00:53:35;24.50;46.30
21425;DHT22;10873;51.132;16.848;2022-12-29T00:56:01;24.50;46.30
21425;DHT22;10873;51.132;16.848;2022-12-29T00:58:27;24.50;46.30
21425;DHT22;10873;51.132;16.848;2022-12-29T01:01:01;24.50;46.30
21425;DHT22;10873;51.132;16.848;2022-12-29T01:03:29;24.50;46.30
21425;DHT22;10873;51.132;16.848;2022-12-29T01:05:55;24.50;46.30
21425;DHT22;10873;51.132;16.848;2022-12-29T01:08:21;24.50;46.30
21425;DHT22;10873;51.132;16.848;2022-12-29T01:10:57;24.50;46.30
21425;DHT22;10873;51.132;16.848;2022-12-29T01:13:24;24.50;46.30
21425;DHT22;10873;51.132;16.848;2022-12-29T01:15:50;24.50;46.30
21425;DHT22;10873;51.132;16.848;2022-12-29T01:18:16;24.50;46.30
21425;DHT22;10873;51.132;16.848;2022-12-29T01:20:43;24.50;46.40
21425;DHT22;10873;51.132;16.848;2022-12-29T01:23:10;24.50;46.40
21425;DHT22;10873;51.132;16.848;2022-12-29T01:25:35;24.50;46.40
21425;DHT22;10873;51.132;16.848;2022-12-29T01:28:02;24.50;46.40
21425;DHT22;10873;51.132;16.848;2022-12-29T01:30:28;24.50;46.40
21425;DHT22;10873;51.132;16.848;2022-12-29T01:32:54;24.50;46.40
21425;DHT22;10873;51.132;16.848;2022-12-29T01:35:20;24.50;46.50
21425;DHT22;10873;51.132;16.848;2022-12-29T01:37:47;24.50;46.50
21425;DHT22;10873;51.132;16.848;2022-12-29T01:40:13;24.50;46.60
21425;DHT22;10873;51.132;16.848;2022-12-29T01:42:40;24.50;46.70
21425;DHT22;10873;51.132;16.848;2022-12-29T01:45:09;24.50;46.70
21425;DHT22;10873;51.132;16.848;2022-12-29T01:47:38;24.50;46.80
21425;DHT22;10873;51.132;16.848;2022-12-29T01:50:10;24.50;46.80
21425;DHT22;10873;51.132;16.848;2022-12-29T01:52:40;24.50;46.90
21425;DHT22;10873;51.132;16.848;2022-12-29T01:55:09;24.50;46.90
21425;DHT22;10873;51.132;16.848;2022-12-29T01:57:38;24.50;46.90
21425;DHT22;10873;51.132;16.848;2022-12-29T02:00:08;24.50;46.90
21425;DHT22;10873;51.132;16.848;2022-12-29T02:02:35;24.50;46.80
21425;DHT22;10873;51.132;16.848;2022-12-29T02:05:07;24.50;46.70
21425;DHT22;10873;51.132;16.848;2022-12-29T02:07:35;24.50;46.70
21425;DHT22;10873;51.132;16.848;2022-12-29T02:10:03;24.60;46.70
21425;DHT22;10873;51.132;16.848;2022-12-29T02:12:31;24.50;46.60
21425;DHT22;10873;51.132;16.848;2022-12-29T02:14:59;24.50;46.60
21425;DHT22;10873;51.132;16.848;2022-12-29T02:17:36;24.50;46.70
21425;DHT22;10873;51.132;16.848;2022-12-29T02:20:46;24.50;46.70
21425;DHT22;10873;51.132;16.848;2022-12-29T02:23:45;24.50;46.70
21425;DHT22;10873;51.132;16.848;2022-12-29T02:26:28;24.50;46.60
21425;DHT22;10873;51.132;16.848;2022-12-29T02:29:19;24.50;46.50
21425;DHT22;10873;51.132;16.848;2022-12-29T02:31:50;24.60;46.50
21425;DHT22;10873;51.132;16.848;2022-12-29T02:34:23;24.50;46.50
21425;DHT22;10873;51.132;16.848;2022-12-29T02:36:59;24.50;46.50
21425;DHT22;10873;51.132;16.848;2022-12-29T02:39:34;24.50;46.50
21425;DHT22;10873;51.132;16.848;2022-12-29T02:42:09;24.50;46.40
21425;DHT22;10873;51.132;16.848;2022-12-29T02:44:46;24.50;46.40
21425;DHT22;10873;51.132;16.848;2022-12-29T02:47:22;24.50;46.40
21425;DHT22;10873;51.132;16.848;2022-12-29T02:49:56;24.50;46.40
21425;DHT22;10873;51.132;16.848;2022-12-29T02:52:26;24.50;46.30
21425;DHT22;10873;51.132;16.848;2022-12-29T02:54:54;24.50;46.30
21425;DHT22;10873;51.132;16.848;2022-12-29T02:57:29;24.50;46.30
21425;DHT22;10873;51.132;16.848;2022-12-29T03:00:00;24.50;46.10
21425;DHT22;10873;51.132;16.848;2022-12-29T03:02:47;24.50;46.20
21425;DHT22;10873;51.132;16.848;2022-12-29T03:05:30;24.50;46.20
21425;DHT22;10873;51.132;16.848;2022-12-29T03:08:05;24.50;46.20
21425;DHT22;10873;51.132;16.848;2022-12-29T03:10:40;24.50;46.30
21425;DHT22;10873;51.132;16.848;2022-12-29T03:13:12;24.50;46.30
21425;DHT22;10873;51.132;16.848;2022-12-29T03:16:07;24.50;46.30
21425;DHT22;10873;51.132;16.848;2022-12-29T03:18:46;24.50;46.20
21425;DHT22;10873;51.132;16.848;2022-12-29T03:21:17;24.50;46.20
21425;DHT22;10873;51.132;16.848;2022-12-29T03:23:45;24.50;46.20
21425;DHT22;10873;51.132;16.848;2022-12-29T03:26:16;24.50;46.20
21425;DHT22;10873;51.132;16.848;2022-12-29T03:28:46;24.50;46.30
21425;DHT22;10873;51.132;16.848;2022-12-29T03:31:14;24.50;46.30
21425;DHT22;10873;51.132;16.848;2022-12-29T03:33:43;24.50;46.40
21425;DHT22;10873;51.132;16.848;2022-12-29T03:36:13;24.50;46.40
21425;DHT22;10873;51.132;16.848;2022-12-29T03:38:45;24.50;46.50
21425;DHT22;10873;51.132;16.848;2022-12-29T03:41:15;24.50;46.60
21425;DHT22;10873;51.132;16.848;2022-12-29T03:43:42;24.50;46.50
21425;DHT22;10873;51.132;16.848;2022-12-29T03:46:08;24.50;46.60
21425;DHT22;10873;51.132;16.848;2022-12-29T03:48:34;24.50;46.60
21425;DHT22;10873;51.132;16.848;2022-12-29T03:51:02;24.50;46.60
21425;DHT22;10873;51.132;16.848;2022-12-29T03:53:28;24.50;46.60
21425;DHT22;10873;51.132;16.848;2022-12-29T03:55:54;24.50;46.60
21425;DHT22;10873;51.132;16.848;2022-12-29T03:58:20;24.50;46.60
21425;DHT22;10873;51.132;16.848;2022-12-29T04:00:46;24.50;46.60
21425;DHT22;10873;51.132;16.848;2022-12-29T04:03:12;24.50;47.20
21425;DHT22;10873;51.132;16.848;2022-12-29T04:05:38;24.50;46.50
21425;DHT22;10873;51.132;16.848;2022-12-29T04:08:05;24.50;46.50
21425;DHT22;10873;51.132;16.848;2022-12-29T04:10:32;24.50;46.50
21425;DHT22;10873;51.132;16.848;2022-12-29T04:12:57;24.60;46.50
21425;DHT22;10873;51.132;16.848;2022-12-29T04:15:24;24.50;46.50
21425;DHT22;10873;51.132;16.848;2022-12-29T04:17:52;24.60;46.50
21425;DHT22;10873;51.132;16.848;2022-12-29T04:20:18;24.60;46.50
21425;DHT22;10873;51.132;16.848;2022-12-29T04:23:02;24.50;46.50
21425;DHT22;10873;51.132;16.848;2022-12-29T04:25:32;24.60;46.50
21425;DHT22;10873;51.132;16.848;2022-12-29T04:27:58;24.50;46.40
21425;DHT22;10873;51.132;16.848;2022-12-29T04:30:25;24.50;46.40
21425;DHT22;10873;51.132;16.848;2022-12-29T04:32:51;24.50;46.20
21425;DHT22;10873;51.132;16.848;2022-12-29T04:35:17;24.50;46.10
21425;DHT22;10873;51.132;16.848;2022-12-29T04:37:43;24.60;46.20
21425;DHT22;10873;51.132;16.848;2022-12-29T04:40:10;24.60;46.20
21425;DHT22;10873;51.132;16.848;2022-12-29T04:42:38;24.60;46.00
21425;DHT22;10873;51.132;16.848;2022-12-29T04:45:05;24.60;46.00
21425;DHT22;10873;51.132;16.848;2022-12-29T04:47:31;24.60;46.00
21425;DHT22;10873;51.132;16.848;2022-12-29T04:49:57;24.60;46.00
21425;DHT22;10873;51.132;16.848;2022-12-29T04:52:23;24.60;46.00
21425;DHT22;10873;51.132;16.848;2022-12-29T04:54:49;24.60;46.00
21425;DHT22;10873;51.132;16.848;2022-12-29T04:57:15;24.60;46.00
21425;DHT22;10873;51.132;16.848;2022-12-29T04:59:43;24.60;46.00
21425;DHT22;10873;51.132;16.848;2022-12-29T05:02:08;24.60;46.00
21425;DHT22;10873;51.132;16.848;2022-12-29T05:04:35;24.60;45.90
21425;DHT22;10873;51.132;16.848;2022-12-29T05:07:00;24.60;46.00
21425;DHT22;10873;51.132;16.848;2022-12-29T05:09:27;24.60;46.00
21425;DHT22;10873;51.132;16.848;2022-12-29T05:11:52;24.60;46.10
21425;DHT22;10873;51.132;16.848;2022-12-29T05:14:19;24.60;46.00
21425;DHT22;10873;51.132;16.848;2022-12-29T05:16:46;24.60;46.00
21425;DHT22;10873;51.132;16.848;2022-12-29T05:19:12;24.60;45.90
21425;DHT22;10873;51.132;16.848;2022-12-29T05:21:38;24.60;46.00
21425;DHT22;10873;51.132;16.848;2022-12-29T05:24:05;24.60;46.00
21425;DHT22;10873;51.132;16.848;2022-12-29T05:26:30;24.60;46.00
21425;DHT22;10873;51.132;16.848;2022-12-29T05:28:57;24.60;46.00
21425;DHT22;10873;51.132;16.848;2022-12-29T05:31:22;24.60;46.00
21425;DHT22;10873;51.132;16.848;2022-12-29T05:33:50;24.60;45.90
21425;DHT22;10873;51.132;16.848;2022-12-29T05:36:16;24.60;45.90
21425;DHT22;10873;51.132;16.848;2022-12-29T05:38:42;24.60;45.80
21425;DHT22;10873;51.132;16.848;2022-12-29T05:41:08;24.60;45.80
21425;DHT22;10873;51.132;16.848;2022-12-29T05:43:34;24.60;45.80
21425;DHT22;10873;51.132;16.848;2022-12-29T05:46:01;24.60;45.80
21425;DHT22;10873;51.132;16.848;2022-12-29T05:48:27;24.60;45.80
21425;DHT22;10873;51.132;16.848;2022-12-29T05:50:54;24.60;45.80
21425;DHT22;10873;51.132;16.848;2022-12-29T05:53:21;24.60;45.90
21425;DHT22;10873;51.132;16.848;2022-12-29T05:55:47;24.60;45.80
21425;DHT22;10873;51.132;16.848;2022-12-29T05:58:14;24.60;45.80
21425;DHT22;10873;51.132;16.848;2022-12-29T06:00:40;24.60;45.70
21425;DHT22;10873;51.132;16.848;2022-12-29T06:03:06;24.60;45.70
21425;DHT22;10873;51.132;16.848;2022-12-29T06:05:32;24.60;45.70
21425;DHT22;10873;51.132;16.848;2022-12-29T06:07:59;24.60;46.30
21425;DHT22;10873;51.132;16.848;2022-12-29T06:10:25;24.60;45.70
21425;DHT22;10873;51.132;16.848;2022-12-29T06:12:51;24.60;45.70
21425;DHT22;10873;51.132;16.848;2022-12-29T06:15:17;24.60;45.70
21425;DHT22;10873;51.132;16.848;2022-12-29T06:17:44;24.60;45.50
21425;DHT22;10873;51.132;16.848;2022-12-29T06:20:10;24.60;45.50
21425;DHT22;10873;51.132;16.848;2022-12-29T06:22:36;24.60;45.50
21425;DHT22;10873;51.132;16.848;2022-12-29T06:25:04;24.50;45.50
21425;DHT22;10873;51.132;16.848;2022-12-29T06:27:31;24.50;45.50
21425;DHT22;10873;51.132;16.848;2022-12-29T06:29:57;24.60;45.50
21425;DHT22;10873;51.132;16.848;2022-12-29T06:32:23;24.60;45.50
21425;DHT22;10873;51.132;16.848;2022-12-29T06:34:49;24.60;45.60
21425;DHT22;10873;51.132;16.848;2022-12-29T06:37:15;24.60;45.60
21425;DHT22;10873;51.132;16.848;2022-12-29T06:39:41;24.60;45.70
21425;DHT22;10873;51.132;16.848;2022-12-29T06:42:10;24.60;45.80
21425;DHT22;10873;51.132;16.848;2022-12-29T06:44:36;24.60;45.70
21425;DHT22;10873;51.132;16.848;2022-12-29T06:47:02;24.60;45.90
21425;DHT22;10873;51.132;16.848;2022-12-29T06:49:28;24.60;45.80
21425;DHT22;10873;51.132;16.848;2022-12-29T06:51:54;24.60;45.90
21425;DHT22;10873;51.132;16.848;2022-12-29T06:54:20;24.60;45.80
21425;DHT22;10873;51.132;16.848;2022-12-29T06:56:46;24.60;45.90
21425;DHT22;10873;51.132;16.848;2022-12-29T06:59:14;24.50;46.10
21425;DHT22;10873;51.132;16.848;2022-12-29T07:01:40;24.50;46.40
21425;DHT22;10873;51.132;16.848;2022-12-29T07:04:06;24.50;46.30
21425;DHT22;10873;51.132;16.848;2022-12-29T07:06:32;24.50;46.10
21425;DHT22;10873;51.132;16.848;2022-12-29T07:08:58;24.50;46.00
21425;DHT22;10873;51.132;16.848;2022-12-29T07:11:24;24.50;45.90
21425;DHT22;10873;51.132;16.848;2022-12-29T07:13:51;24.50;45.90
21425;DHT22;10873;51.132;16.848;2022-12-29T07:16:19;24.50;45.90
21425;DHT22;10873;51.132;16.848;2022-12-29T07:18:45;24.50;46.50
21425;DHT22;10873;51.132;16.848;2022-12-29T07:21:11;24.50;45.70
21425;DHT22;10873;51.132;16.848;2022-12-29T07:23:37;24.50;45.70
21425;DHT22;10873;51.132;16.848;2022-12-29T07:26:05;24.50;45.60
21425;DHT22;10873;51.132;16.848;2022-12-29T07:28:32;24.50;45.50
21425;DHT22;10873;51.132;16.848;2022-12-29T07:30:58;24.50;45.60
21425;DHT22;10873;51.132;16.848;2022-12-29T07:33:28;24.50;45.70
21425;DHT22;10873;51.132;16.848;2022-12-29T07:35:54;24.50;45.70
21425;DHT22;10873;51.132;16.848;2022-12-29T07:38:20;24.50;45.80
21425;DHT22;10873;51.132;16.848;2022-12-29T07:40:46;24.50;45.90
21425;DHT22;10873;51.132;16.848;2022-12-29T07:43:12;24.50;46.00
21425;DHT22;10873;51.132;16.848;2022-12-29T07:45:39;24.50;46.10
21425;DHT22;10873;51.132;16.848;2022-12-29T07:48:05;24.50;46.40
21425;DHT22;10873;51.132;16.848;2022-12-29T07:50:36;24.50;47.20
21425;DHT22;10873;51.132;16.848;2022-12-29T07:53:02;24.50;46.70
21425;DHT22;10873;51.132;16.848;2022-12-29T07:55:29;24.50;46.70
21425;DHT22;10873;51.132;16.848;2022-12-29T07:57:55;24.50;46.90
21425;DHT22;10873;51.132;16.848;2022-12-29T08:00:22;24.50;46.90
21425;DHT22;10873;51.132;16.848;2022-12-29T08:02:48;24.50;46.90
21425;DHT22;10873;51.132;16.848;2022-12-29T08:05:17;24.50;46.80
21425;DHT22;10873;51.132;16.848;2022-12-29T08:07:45;24.50;46.90
21425;DHT22;10873;51.132;16.848;2022-12-29T08:10:11;24.50;47.00
21425;DHT22;10873;51.132;16.848;2022-12-29T08:12:38;24.50;47.00
21425;DHT22;10873;51.132;16.848;2022-12-29T08:15:06;24.50;47.20
21425;DHT22;10873;51.132;16.848;2022-12-29T08:17:32;24.50;47.20
21425;DHT22;10873;51.132;16.848;2022-12-29T08:19:58;24.50;47.30
21425;DHT22;10873;51.132;16.848;2022-12-29T08:22:24;24.50;47.30
21425;DHT22;10873;51.132;16.848;2022-12-29T08:24:52;24.50;47.50
21425;DHT22;10873;51.132;16.848;2022-12-29T08:27:18;24.50;47.50
21425;DHT22;10873;51.132;16.848;2022-12-29T08:29:45;24.50;47.60
21425;DHT22;10873;51.132;16.848;2022-12-29T08:32:11;24.50;47.70
21425;DHT22;10873;51.132;16.848;2022-12-29T08:34:37;24.50;47.60
21425;DHT22;10873;51.132;16.848;2022-12-29T08:37:03;24.50;47.60
21425;DHT22;10873;51.132;16.848;2022-12-29T08:39:30;24.50;47.60
21425;DHT22;10873;51.132;16.848;2022-12-29T08:41:57;24.50;47.70
21425;DHT22;10873;51.132;16.848;2022-12-29T08:44:23;24.50;47.70
21425;DHT22;10873;51.132;16.848;2022-12-29T08:46:49;24.50;47.70
21425;DHT22;10873;51.132;16.848;2022-12-29T08:49:16;24.50;48.60
21425;DHT22;10873;51.132;16.848;2022-12-29T08:51:41;24.50;49.30
21425;DHT22;10873;51.132;16.848;2022-12-29T08:54:08;24.50;49.60
21425;DHT22;10873;51.132;16.848;2022-12-29T08:56:34;24.50;50.00
21425;DHT22;10873;51.132;16.848;2022-12-29T08:59:02;24.50;50.20
21425;DHT22;10873;51.132;16.848;2022-12-29T09:01:28;24.50;50.30
21425;DHT22;10873;51.132;16.848;2022-12-29T09:03:54;24.50;50.30
21425;DHT22;10873;51.132;16.848;2022-12-29T09:06:20;24.60;50.70
21425;DHT22;10873;51.132;16.848;2022-12-29T09:08:46;24.60;51.30
21425;DHT22;10873;51.132;16.848;2022-12-29T09:11:15;24.60;51.70
21425;DHT22;10873;51.132;16.848;2022-12-29T09:13:42;24.70;54.50
21425;DHT22;10873;51.132;16.848;2022-12-29T09:16:10;25.00;55.40
21425;DHT22;10873;51.132;16.848;2022-12-29T09:18:36;25.40;55.80
21425;DHT22;10873;51.132;16.848;2022-12-29T09:21:04;25.80;55.90
21425;DHT22;10873;51.132;16.848;2022-12-29T09:23:31;26.30;55.70
21425;DHT22;10873;51.132;16.848;2022-12-29T09:25:57;26.70;55.60
21425;DHT22;10873;51.132;16.848;2022-12-29T09:28:23;27.20;55.50
21425;DHT22;10873;51.132;16.848;2022-12-29T09:30:49;27.60;55.20
21425;DHT22;10873;51.132;16.848;2022-12-29T09:33:17;28.00;54.80
21425;DHT22;10873;51.132;16.848;2022-12-29T09:35:44;28.40;54.50
21425;DHT22;10873;51.132;16.848;2022-12-29T09:38:11;28.70;54.00
21425;DHT22;10873;51.132;16.848;2022-12-29T09:40:38;29.00;53.50
21425;DHT22;10873;51.132;16.848;2022-12-29T09:46:01;29.50;52.60
21425;DHT22;10873;51.132;16.848;2022-12-29T09:48:36;29.80;52.10
21425;DHT22;10873;51.132;16.848;2022-12-29T09:51:07;30.10;52.00
21425;DHT22;10873;51.132;16.848;2022-12-29T09:53:37;30.30;51.70
21425;DHT22;10873;51.132;16.848;2022-12-29T09:56:05;30.50;51.00
21425;DHT22;10873;51.132;16.848;2022-12-29T09:58:40;30.70;50.80
21425;DHT22;10873;51.132;16.848;2022-12-29T10:01:13;30.90;50.60
21425;DHT22;10873;51.132;16.848;2022-12-29T10:03:46;31.10;50.30
21425;DHT22;10873;51.132;16.848;2022-12-29T10:06:17;31.20;50.40
21425;DHT22;10873;51.132;16.848;2022-12-29T10:08:52;31.40;50.30
21425;DHT22;10873;51.132;16.848;2022-12-29T10:11:28;31.60;49.70
21425;DHT22;10873;51.132;16.848;2022-12-29T10:14:07;31.70;49.70
21425;DHT22;10873;51.132;16.848;2022-12-29T10:16:42;31.90;49.50
21425;DHT22;10873;51.132;16.848;2022-12-29T10:19:31;31.90;52.00
21425;DHT22;10873;51.132;16.848;2022-12-29T10:22:09;31.60;52.30
21425;DHT22;10873;51.132;16.848;2022-12-29T10:24:39;31.30;52.70
21425;DHT22;10873;51.132;16.848;2022-12-29T10:27:10;31.00;52.70
21425;DHT22;10873;51.132;16.848;2022-12-29T10:29:40;30.80;52.70
21425;DHT22;10873;51.132;16.848;2022-12-29T10:32:15;30.50;52.40
21425;DHT22;10873;51.132;16.848;2022-12-29T10:34:49;30.30;50.40
21425;DHT22;10873;51.132;16.848;2022-12-29T10:37:24;30.10;49.90
21425;DHT22;10873;51.132;16.848;2022-12-29T10:40:11;29.90;49.50
21425;DHT22;10873;51.132;16.848;2022-12-29T10:42:42;29.60;49.00
21425;DHT22;10873;51.132;16.848;2022-12-29T10:45:13;29.50;48.80
21425;DHT22;10873;51.132;16.848;2022-12-29T10:47:52;29.30;48.50
21425;DHT22;10873;51.132;16.848;2022-12-29T10:50:20;29.20;48.30
21425;DHT22;10873;51.132;16.848;2022-12-29T10:52:48;29.10;48.10
21425;DHT22;10873;51.132;16.848;2022-12-29T10:55:18;29.00;48.00
21425;DHT22;10873;51.132;16.848;2022-12-29T10:57:45;28.90;47.80
21425;DHT22;10873;51.132;16.848;2022-12-29T11:00:13;28.80;47.70
21425;DHT22;10873;51.132;16.848;2022-12-29T11:02:53;28.70;47.60
21425;DHT22;10873;51.132;16.848;2022-12-29T11:05:29;28.60;47.40
21425;DHT22;10873;51.132;16.848;2022-12-29T11:08:02;28.50;47.20
21425;DHT22;10873;51.132;16.848;2022-12-29T11:10:36;28.40;47.00
21425;DHT22;10873;51.132;16.848;2022-12-29T11:13:04;28.30;46.90
21425;DHT22;10873;51.132;16.848;2022-12-29T11:15:40;28.20;46.70
21425;DHT22;10873;51.132;16.848;2022-12-29T11:18:18;28.10;46.70
21425;DHT22;10873;51.132;16.848;2022-12-29T11:20:46;28.10;46.80
21425;DHT22;10873;51.132;16.848;2022-12-29T11:23:23;28.00;46.70
21425;DHT22;10873;51.132;16.848;2022-12-29T11:26:13;27.90;46.50
21425;DHT22;10873;51.132;16.848;2022-12-29T11:28:40;27.80;46.40
21425;DHT22;10873;51.132;16.848;2022-12-29T11:31:08;27.80;46.60
21425;DHT22;10873;51.132;16.848;2022-12-29T11:33:38;27.70;46.50
21425;DHT22;10873;51.132;16.848;2022-12-29T11:36:10;27.60;46.40
21425;DHT22;10873;51.132;16.848;2022-12-29T11:38:39;27.60;46.50
21425;DHT22;10873;51.132;16.848;2022-12-29T11:41:11;27.50;47.90
21425;DHT22;10873;51.132;16.848;2022-12-29T11:43:40;27.50;50.20
21425;DHT22;10873;51.132;16.848;2022-12-29T11:46:14;27.40;51.00
21425;DHT22;10873;51.132;16.848;2022-12-29T11:48:41;27.40;51.80
21425;DHT22;10873;51.132;16.848;2022-12-29T11:51:10;27.40;52.30
21425;DHT22;10873;51.132;16.848;2022-12-29T11:53:39;27.40;53.10
21425;DHT22;10873;51.132;16.848;2022-12-29T11:56:09;27.40;53.30
21425;DHT22;10873;51.132;16.848;2022-12-29T11:58:37;27.50;53.80
21425;DHT22;10873;51.132;16.848;2022-12-29T12:01:06;27.90;54.20
21425;DHT22;10873;51.132;16.848;2022-12-29T12:03:35;28.20;54.50
21425;DHT22;10873;51.132;16.848;2022-12-29T12:06:03;28.60;54.80
21425;DHT22;10873;51.132;16.848;2022-12-29T12:08:37;29.00;54.80
21425;DHT22;10873;51.132;16.848;2022-12-29T12:11:10;29.40;55.20
21425;DHT22;10873;51.132;16.848;2022-12-29T12:13:41;29.70;55.10
21425;DHT22;10873;51.132;16.848;2022-12-29T12:16:13;30.00;54.70
21425;DHT22;10873;51.132;16.848;2022-12-29T12:18:43;30.40;54.70
21425;DHT22;10873;51.132;16.848;2022-12-29T12:21:22;30.70;54.30
21425;DHT22;10873;51.132;16.848;2022-12-29T12:24:16;31.00;54.90
21425;DHT22;10873;51.132;16.848;2022-12-29T12:26:57;31.00;57.60
21425;DHT22;10873;51.132;16.848;2022-12-29T12:29:28;30.90;57.70
21425;DHT22;10873;51.132;16.848;2022-12-29T12:32:02;30.90;55.70
21425;DHT22;10873;51.132;16.848;2022-12-29T12:34:33;31.00;55.00
21425;DHT22;10873;51.132;16.848;2022-12-29T12:37:27;31.20;54.30
21425;DHT22;10873;51.132;16.848;2022-12-29T12:40:21;31.50;53.30
21425;DHT22;10873;51.132;16.848;2022-12-29T12:42:59;31.70;52.40
21425;DHT22;10873;51.132;16.848;2022-12-29T12:45:45;31.90;51.60
21425;DHT22;10873;51.132;16.848;2022-12-29T12:48:34;32.10;51.00
21425;DHT22;10873;51.132;16.848;2022-12-29T12:51:07;32.30;50.40
21425;DHT22;10873;51.132;16.848;2022-12-29T12:53:53;32.50;50.10
21425;DHT22;10873;51.132;16.848;2022-12-29T12:56:44;32.70;50.50
21425;DHT22;10873;51.132;16.848;2022-12-29T12:59:24;32.90;49.50
21425;DHT22;10873;51.132;16.848;2022-12-29T13:01:59;33.00;49.20
21425;DHT22;10873;51.132;16.848;2022-12-29T13:04:37;33.10;51.70
21425;DHT22;10873;51.132;16.848;2022-12-29T13:07:15;32.90;52.30
21425;DHT22;10873;51.132;16.848;2022-12-29T13:09:56;32.70;50.60
21425;DHT22;10873;51.132;16.848;2022-12-29T13:12:34;32.70;51.20
21425;DHT22;10873;51.132;16.848;2022-12-29T13:15:14;32.60;52.40
21425;DHT22;10873;51.132;16.848;2022-12-29T13:17:47;32.40;51.90
21425;DHT22;10873;51.132;16.848;2022-12-29T13:20:23;32.10;51.90
21425;DHT22;10873;51.132;16.848;2022-12-29T13:22:54;31.80;51.90
21425;DHT22;10873;51.132;16.848;2022-12-29T13:25:29;31.60;51.70
21425;DHT22;10873;51.132;16.848;2022-12-29T13:28:02;31.40;51.10
21425;DHT22;10873;51.132;16.848;2022-12-29T13:30:34;31.10;49.80
21425;DHT22;10873;51.132;16.848;2022-12-29T13:33:10;31.00;49.30
21425;DHT22;10873;51.132;16.848;2022-12-29T13:35:52;30.80;48.80
21425;DHT22;10873;51.132;16.848;2022-12-29T13:38:22;30.60;48.50
21425;DHT22;10873;51.132;16.848;2022-12-29T13:40:52;30.40;48.10
21425;DHT22;10873;51.132;16.848;2022-12-29T13:43:22;30.30;47.70
21425;DHT22;10873;51.132;16.848;2022-12-29T13:45:55;30.10;47.70
21425;DHT22;10873;51.132;16.848;2022-12-29T13:48:31;30.00;47.20
21425;DHT22;10873;51.132;16.848;2022-12-29T13:51:02;29.90;47.20
21425;DHT22;10873;51.132;16.848;2022-12-29T13:53:34;29.80;47.20
21425;DHT22;10873;51.132;16.848;2022-12-29T13:56:07;29.60;46.90
21425;DHT22;10873;51.132;16.848;2022-12-29T13:58:42;29.50;46.70
21425;DHT22;10873;51.132;16.848;2022-12-29T14:01:15;29.40;46.50
21425;DHT22;10873;51.132;16.848;2022-12-29T14:03:47;29.30;46.30
21425;DHT22;10873;51.132;16.848;2022-12-29T14:06:18;29.20;46.20
21425;DHT22;10873;51.132;16.848;2022-12-29T14:08:46;29.10;46.00
21425;DHT22;10873;51.132;16.848;2022-12-29T14:11:15;29.00;45.80
21425;DHT22;10873;51.132;16.848;2022-12-29T14:13:44;28.90;45.90
21425;DHT22;10873;51.132;16.848;2022-12-29T14:16:29;28.80;45.90
21425;DHT22;10873;51.132;16.848;2022-12-29T14:18:56;28.70;45.80
21425;DHT22;10873;51.132;16.848;2022-12-29T14:21:29;28.60;45.80
21425;DHT22;10873;51.132;16.848;2022-12-29T14:24:28;28.50;45.70
21425;DHT22;10873;51.132;16.848;2022-12-29T14:26:54;28.40;45.50
21425;DHT22;10873;51.132;16.848;2022-12-29T14:29:44;28.30;45.40
21425;DHT22;10873;51.132;16.848;2022-12-29T14:32:35;28.30;45.40
21425;DHT22;10873;51.132;16.848;2022-12-29T14:35:37;28.20;45.40
21425;DHT22;10873;51.132;16.848;2022-12-29T14:38:06;28.10;45.50
21425;DHT22;10873;51.132;16.848;2022-12-29T14:40:32;28.00;45.50
21425;DHT22;10873;51.132;16.848;2022-12-29T14:43:00;28.00;45.60
21425;DHT22;10873;51.132;16.848;2022-12-29T14:45:29;27.90;45.80
21425;DHT22;10873;51.132;16.848;2022-12-29T14:47:56;27.90;51.10
21425;DHT22;10873;51.132;16.848;2022-12-29T14:50:25;27.80;51.10
21425;DHT22;10873;51.132;16.848;2022-12-29T14:52:53;27.80;50.70
21425;DHT22;10873;51.132;16.848;2022-12-29T14:55:32;27.70;49.90
21425;DHT22;10873;51.132;16.848;2022-12-29T14:58:05;27.60;49.20
21425;DHT22;10873;51.132;16.848;2022-12-29T15:00:34;27.60;48.60
21425;DHT22;10873;51.132;16.848;2022-12-29T15:03:04;27.60;48.40
21425;DHT22;10873;51.132;16.848;2022-12-29T15:05:36;27.50;47.90
21425;DHT22;10873;51.132;16.848;2022-12-29T15:08:04;27.40;47.30
21425;DHT22;10873;51.132;16.848;2022-12-29T15:10:37;27.40;47.00
21425;DHT22;10873;51.132;16.848;2022-12-29T15:13:05;27.30;46.70
21425;DHT22;10873;51.132;16.848;2022-12-29T15:15:40;27.20;46.40
21425;DHT22;10873;51.132;16.848;2022-12-29T15:18:18;27.10;46.20
21425;DHT22;10873;51.132;16.848;2022-12-29T15:20:51;27.10;46.00
21425;DHT22;10873;51.132;16.848;2022-12-29T15:23:19;27.10;46.00
21425;DHT22;10873;51.132;16.848;2022-12-29T15:25:47;27.00;45.90
21425;DHT22;10873;51.132;16.848;2022-12-29T15:28:15;27.00;46.50
21425;DHT22;10873;51.132;16.848;2022-12-29T15:30:52;26.90;45.80
21425;DHT22;10873;51.132;16.848;2022-12-29T15:33:20;26.90;45.80
21425;DHT22;10873;51.132;16.848;2022-12-29T15:35:50;26.80;45.80
21425;DHT22;10873;51.132;16.848;2022-12-29T15:38:21;26.80;46.10
21425;DHT22;10873;51.132;16.848;2022-12-29T15:40:52;26.70;46.50